Terminal Aerodrome Forecast
Issued by NWS

Home | Current Version | Previous Version | Text Only | Print | Product List | Glossary Off
Versions: 1 2 3 4 5 6 7 8 9 10 11 12 13 14 15 16 17 18

000
FTUS43 KIWX 171720
TAFSBN
TAF
KSBN 171720Z 1718/1818 20010KT P6SM BKN200
     FM172300 22008KT P6SM -RASN OVC050
      TEMPO 1800/1803 P6SM -RASN OVC025
     FM180300 24009KT P6SM OVC025
     FM181200 20004KT P6SM SCT045=

USA.gov is the U.S. government's official web portal to all federal, state and local government web resources and services.